Time;durP1;ratioP1;P1;durP2;ratioP2;P2;SDS_P1;SDS_P2;PMS_P1;PMS_P2;Temp;Humidity;BMP_temperature;BMP_pressure;BME280_temperature;BME280_humidity;BME280_pressure;Samples;Min_cycle;Max_cycle;Signal;HPM_P1;HPM_P2
2023/01/14 15:27:04;;;;;;;3.80;2.58;;;9.50;99.90;;;;;;5109566;27;20169;-68
2023/01/14 15:29:33;;;;;;;3.80;2.45;;;9.40;99.90;;;;;;5083229;28;20103;-69
2023/01/14 15:32:30;;;;;;;5.25;2.90;;;9.50;99.90;;;;;;5083387;28;20103;-68
2023/01/14 15:35:26;;;;;;;4.95;2.83;;;9.60;99.90;;;;;;5076336;28;20076;-69
2023/01/14 15:37:55;;;;;;;3.95;2.47;;;9.70;99.90;;;;;;5089483;28;20468;-72
2023/01/14 15:40:24;;;;;;;3.88;2.85;;;9.80;99.90;;;;;;5087561;28;20016;-70
2023/01/14 15:42:51;;;;;;;4.47;2.60;;;9.80;99.90;;;;;;5083065;28;20027;-71
2023/01/14 15:45:21;;;;;;;3.55;2.53;;;9.90;99.90;;;;;;5075735;28;20035;-71
2023/01/14 15:47:47;;;;;;;3.58;2.72;;;9.90;99.90;;;;;;5107931;28;20031;-72
2023/01/14 15:50:24;;;;;;;3.40;2.42;;;9.90;99.90;;;;;;5094616;28;20047;-71
2023/01/14 15:53:23;;;;;;;3.28;2.53;;;10.00;99.90;;;;;;5088536;28;20035;-71
2023/01/14 15:56:21;;;;;;;4.82;2.88;;;10.00;99.90;;;;;;5087184;28;20091;-70
2023/01/14 15:58:55;;;;;;;4.25;3.00;;;10.00;99.90;;;;;;5075670;28;20126;-70
2023/01/14 16:01:29;;;;;;;5.05;3.13;;;10.00;99.90;;;;;;5106851;28;20032;-72
2023/01/14 16:03:59;;;;;;;4.70;3.10;;;10.10;99.90;;;;;;5107846;28;20024;-71
2023/01/14 16:06:32;;;;;;;4.75;2.90;;;10.10;99.90;;;;;;5081234;28;20039;-71
2023/01/14 16:09:02;;;;;;;5.10;3.47;;;10.10;99.90;;;;;;5087921;28;20477;-71
2023/01/14 16:11:35;;;;;;;5.15;3.25;;;10.10;99.90;;;;;;5086947;28;20036;-71
2023/01/14 16:14:01;;;;;;;5.28;3.45;;;10.10;99.90;;;;;;5088764;28;20044;-71
2023/01/14 16:16:28;;;;;;;4.85;3.47;;;10.20;99.90;;;;;;5081489;28;20078;-71
2023/01/14 16:18:54;;;;;;;5.15;3.13;;;10.20;99.90;;;;;;5110144;28;20020;-73
2023/01/14 16:21:20;;;;;;;6.00;3.58;;;10.20;99.90;;;;;;5108577;28;20026;-70
2023/01/14 16:23:46;;;;;;;5.53;3.70;;;10.20;99.90;;;;;;5088225;28;20504;-69
2023/01/14 16:26:14;;;;;;;4.93;3.28;;;10.20;99.90;;;;;;5087974;28;20048;-69
2023/01/14 16:28:40;;;;;;;4.95;3.45;;;10.20;99.90;;;;;;5087807;28;20083;-70
2023/01/14 16:31:05;;;;;;;4.05;2.97;;;10.20;99.90;;;;;;5081593;28;20524;-71
2023/01/14 16:33:31;;;;;;;4.55;3.47;;;10.30;99.90;;;;;;5097488;28;20031;-72
2023/01/14 16:35:58;;;;;;;5.75;3.50;;;10.30;99.90;;;;;;5087317;28;20021;-71
2023/01/14 16:38:23;;;;;;;5.30;3.65;;;10.30;99.90;;;;;;5071459;28;20060;-71
2023/01/14 16:40:49;;;;;;;5.32;3.67;;;10.30;99.90;;;;;;5073730;28;20060;-67
2023/01/14 16:43:16;;;;;;;4.55;3.28;;;10.30;99.90;;;;;;5072450;28;20067;-69
2023/01/14 16:45:48;;;;;;;5.05;3.20;;;10.30;99.90;;;;;;5071240;28;20459;-71
2023/01/14 16:48:14;;;;;;;5.13;3.08;;;10.30;99.90;;;;;;5051535;28;20029;-70
2023/01/14 16:50:41;;;;;;;4.82;2.92;;;10.40;99.90;;;;;;5070301;28;20023;-73
2023/01/14 16:53:10;;;;;;;5.97;3.60;;;10.40;99.90;;;;;;5068593;28;20029;-71
2023/01/14 16:55:37;;;;;;;4.35;3.00;;;10.40;99.90;;;;;;5066344;28;20428;-72
2023/01/14 16:58:05;;;;;;;4.38;2.92;;;10.40;99.90;;;;;;5073102;28;20055;-72
2023/01/14 17:00:32;;;;;;;4.35;2.72;;;10.40;99.90;;;;;;5061854;28;20025;-71
2023/01/14 17:02:58;;;;;;;5.50;2.88;;;10.40;99.90;;;;;;5069836;28;20017;-69
2023/01/14 17:05:24;;;;;;;4.28;2.85;;;10.40;99.90;;;;;;5052946;28;20120;-69
2023/01/14 17:07:51;;;;;;;4.18;3.03;;;10.40;99.90;;;;;;5053224;28;20096;-71
2023/01/14 17:10:19;;;;;;;4.72;3.05;;;10.40;99.90;;;;;;5054159;28;20025;-70
2023/01/14 17:12:47;;;;;;;4.93;3.28;;;10.40;99.90;;;;;;5055933;28;20043;-70
2023/01/14 17:15:21;;;;;;;7.63;3.88;;;10.50;99.90;;;;;;5056391;28;20085;-69
2023/01/14 17:17:48;;;;;;;5.05;3.22;;;10.50;99.90;;;;;;5065065;28;20028;-69
2023/01/14 17:20:20;;;;;;;6.63;3.40;;;10.50;99.90;;;;;;5071663;28;20476;-70
2023/01/14 17:22:47;;;;;;;4.55;2.90;;;10.50;99.90;;;;;;5084553;28;20463;-69
2023/01/14 17:25:16;;;;;;;4.82;3.25;;;10.50;99.90;;;;;;5092556;28;20101;-69
2023/01/14 17:27:42;;;;;;;4.88;3.10;;;10.50;99.90;;;;;;5092657;28;20035;-64
2023/01/14 17:30:10;;;;;;;5.30;3.10;;;10.60;99.90;;;;;;5092881;28;20024;-64
2023/01/14 17:32:35;;;;;;;4.63;2.90;;;10.60;99.90;;;;;;5093786;28;20016;-66
2023/01/14 17:35:01;;;;;;;4.00;3.00;;;10.60;99.90;;;;;;5092646;28;20035;-67
2023/01/14 17:37:27;;;;;;;4.53;2.38;;;10.60;99.90;;;;;;5093563;28;20055;-64
2023/01/14 17:39:53;;;;;;;4.13;2.60;;;10.60;99.90;;;;;;5072621;28;20009;-69
2023/01/14 17:42:22;;;;;;;4.22;2.50;;;10.60;99.90;;;;;;5072715;28;20024;-66
2023/01/14 17:44:48;;;;;;;3.47;2.40;;;10.60;99.90;;;;;;5076226;28;20347;-66
2023/01/14 17:47:17;;;;;;;3.30;2.20;;;10.60;99.90;;;;;;5073150;28;20075;-64
2023/01/14 17:49:42;;;;;;;4.70;2.42;;;10.60;99.90;;;;;;5071472;28;20021;-64
2023/01/14 17:52:09;;;;;;;4.50;2.67;;;10.60;99.90;;;;;;5092123;28;20027;-65
2023/01/14 17:54:35;;;;;;;3.70;2.42;;;10.60;99.90;;;;;;5076505;28;20473;-66
2023/01/14 17:57:02;;;;;;;3.28;2.20;;;10.70;99.90;;;;;;5066312;28;20034;-66
2023/01/14 17:59:28;;;;;;;3.05;2.10;;;10.70;99.90;;;;;;5091221;28;20510;-66
2023/01/14 18:01:53;;;;;;;4.63;2.70;;;10.70;99.90;;;;;;5091879;28;20028;-67
2023/01/14 18:04:19;;;;;;;4.35;2.72;;;10.70;99.90;;;;;;5092476;28;20024;-67
2023/01/14 18:06:45;;;;;;;4.78;2.67;;;10.70;99.90;;;;;;5091356;28;20097;-67
2023/01/14 18:09:11;;;;;;;4.55;2.25;;;10.70;99.90;;;;;;5091393;28;20028;-67
2023/01/14 18:11:38;;;;;;;3.47;2.17;;;10.80;99.90;;;;;;5091456;28;20024;-66
2023/01/14 18:14:04;;;;;;;2.25;2.03;;;10.70;99.90;;;;;;5092190;28;20480;-67
2023/01/14 18:16:29;;;;;;;3.67;2.30;;;10.80;99.90;;;;;;5091058;28;20024;-67
2023/01/14 18:18:55;;;;;;;2.58;2.03;;;10.80;99.90;;;;;;5092614;28;20024;-67
2023/01/14 18:21:21;;;;;;;3.78;2.15;;;10.80;99.90;;;;;;5092972;28;20177;-67
2023/01/14 18:23:47;;;;;;;4.03;2.63;;;10.90;99.90;;;;;;5092155;28;20028;-68
2023/01/14 18:26:21;;;;;;;3.75;2.25;;;10.90;99.90;;;;;;5093023;28;20093;-66
2023/01/14 18:28:52;;;;;;;3.80;2.50;;;10.90;99.90;;;;;;5092594;28;20020;-67
2023/01/14 18:31:17;;;;;;;3.90;2.72;;;10.90;99.90;;;;;;5091892;28;20016;-69
2023/01/14 18:33:44;;;;;;;5.18;2.60;;;11.00;99.90;;;;;;5092914;28;20400;-68
2023/01/14 18:36:10;;;;;;;2.53;1.85;;;11.00;99.90;;;;;;5092376;28;20036;-68
2023/01/14 18:38:37;;;;;;;3.28;1.85;;;11.00;99.90;;;;;;5090926;28;20028;-68
2023/01/14 18:41:12;;;;;;;3.05;1.90;;;11.00;99.90;;;;;;5090361;28;20028;-67
2023/01/14 18:43:37;;;;;;;4.40;2.50;;;11.00;99.90;;;;;;5092801;28;20030;-68
2023/01/14 18:46:12;;;;;;;4.10;2.30;;;11.00;99.90;;;;;;5091986;28;20118;-68
2023/01/14 18:48:38;;;;;;;5.47;2.60;;;11.00;99.90;;;;;;5091992;28;20073;-68
2023/01/14 18:51:04;;;;;;;5.63;2.30;;;10.90;99.90;;;;;;5076894;28;20036;-68
2023/01/14 18:53:29;;;;;;;5.47;2.28;;;11.00;99.90;;;;;;5080446;28;20021;-68
2023/01/14 18:55:55;;;;;;;5.07;2.28;;;11.00;99.90;;;;;;5071893;28;20488;-67
2023/01/14 18:58:21;;;;;;;4.43;2.08;;;11.00;99.90;;;;;;5070303;28;20469;-67
2023/01/14 19:00:46;;;;;;;4.78;2.80;;;11.00;99.90;;;;;;5075475;28;20119;-70
2023/01/14 19:03:12;;;;;;;5.45;2.40;;;11.00;99.90;;;;;;5090651;28;20108;-68
2023/01/14 19:05:38;;;;;;;5.55;2.15;;;11.00;99.90;;;;;;5091455;28;20063;-68
2023/01/14 19:08:06;;;;;;;4.95;2.42;;;11.00;99.90;;;;;;5092266;28;20103;-68
2023/01/14 19:10:32;;;;;;;5.20;2.63;;;11.10;99.90;;;;;;5085597;28;20048;-68
2023/01/14 19:12:58;;;;;;;10.30;3.10;;;11.10;99.90;;;;;;5070775;28;20032;-68
2023/01/14 19:15:24;;;;;;;7.05;2.83;;;11.10;99.90;;;;;;5087088;28;20032;-66
2023/01/14 19:17:49;;;;;;;5.70;2.90;;;11.00;99.90;;;;;;5071494;28;20078;-66
2023/01/14 19:20:15;;;;;;;7.57;3.53;;;11.00;99.90;;;;;;5071418;28;20020;-66
2023/01/14 19:22:43;;;;;;;7.68;3.38;;;11.00;99.90;;;;;;5072753;28;20420;-67
2023/01/14 19:25:09;;;;;;;8.52;3.35;;;11.00;99.90;;;;;;5091724;28;20048;-66
2023/01/14 19:27:34;;;;;;;7.88;3.47;;;11.00;99.90;;;;;;5091621;28;20028;-67
2023/01/14 19:30:00;;;;;;;7.97;2.97;;;11.00;99.90;;;;;;5091397;28;20073;-67
2023/01/14 19:32:25;;;;;;;9.38;2.97;;;11.00;99.90;;;;;;5092058;28;20035;-67
2023/01/14 19:34:51;;;;;;;9.63;2.55;;;10.90;99.90;;;;;;5074380;28;20025;-67
2023/01/14 19:37:17;;;;;;;9.10;2.53;;;10.90;99.90;;;;;;5085079;28;20039;-65
2023/01/14 19:39:42;;;;;;;11.02;3.40;;;10.90;99.90;;;;;;5091823;28;20030;-67
2023/01/14 19:42:08;;;;;;;9.30;2.45;;;10.80;99.90;;;;;;5091776;28;20480;-66
2023/01/14 19:44:34;;;;;;;7.68;2.42;;;10.80;99.90;;;;;;5089851;28;20314;-67
2023/01/14 19:46:59;;;;;;;7.30;2.30;;;10.80;99.90;;;;;;5089981;28;20032;-68
2023/01/14 19:49:25;;;;;;;8.50;2.30;;;10.80;99.90;;;;;;5091658;28;20505;-67
2023/01/14 19:51:50;;;;;;;7.68;2.10;;;10.70;99.90;;;;;;5089885;28;20113;-67
2023/01/14 19:54:16;;;;;;;6.78;1.98;;;10.70;99.90;;;;;;5091106;28;20036;-68
2023/01/14 19:56:42;;;;;;;7.70;2.38;;;10.60;99.90;;;;;;5091660;28;20043;-68
2023/01/14 19:59:09;;;;;;;12.93;2.50;;;10.60;99.90;;;;;;5090361;28;20031;-67
2023/01/14 20:01:36;;;;;;;11.80;2.42;;;10.60;99.90;;;;;;5090289;28;20024;-67
2023/01/14 20:04:13;;;;;;;10.95;2.38;;;10.60;99.90;;;;;;5089987;28;20020;-67
2023/01/14 20:06:39;;;;;;;8.57;2.47;;;10.50;99.90;;;;;;5090059;28;20028;-67
2023/01/14 20:09:13;;;;;;;7.82;1.90;;;10.50;99.90;;;;;;5090304;28;20530;-68
2023/01/14 20:11:41;;;;;;;9.10;2.63;;;10.50;99.90;;;;;;5091350;28;20030;-68
2023/01/14 20:14:07;;;;;;;10.38;3.15;;;10.50;99.90;;;;;;5095023;28;20028;-67
2023/01/14 20:16:32;;;;;;;10.85;2.40;;;10.50;99.90;;;;;;5095084;28;20016;-68
2023/01/14 20:18:58;;;;;;;8.73;2.45;;;10.50;99.90;;;;;;5094403;28;20020;-70
2023/01/14 20:21:25;;;;;;;6.95;1.63;;;10.50;99.90;;;;;;5094024;28;20024;-70
2023/01/14 20:23:52;;;;;;;5.82;1.40;;;10.20;99.90;;;;;;5094762;28;20020;-68
2023/01/14 20:26:29;;;;;;;1.20;0.82;;;9.70;99.90;;;;;;5095108;28;20097;-70
2023/01/14 20:28:56;;;;;;;3.25;1.08;;;9.30;99.90;;;;;;5093313;28;20077;-69
2023/01/14 20:31:24;;;;;;;2.83;1.08;;;9.00;99.90;;;;;;5094923;28;20134;-69
2023/01/14 20:33:52;;;;;;;4.07;0.98;;;8.60;99.90;;;;;;5095040;28;20425;-69
2023/01/14 20:36:18;;;;;;;1.98;0.85;;;8.40;99.90;;;;;;5094674;28;20098;-66
2023/01/14 20:38:44;;;;;;;2.53;0.90;;;8.30;99.90;;;;;;5092752;28;20017;-67
2023/01/14 20:41:11;;;;;;;2.85;1.00;;;8.20;99.90;;;;;;5093307;28;20058;-66
2023/01/14 20:43:37;;;;;;;3.20;0.98;;;8.10;99.90;;;;;;5094543;28;20016;-66
2023/01/14 20:46:12;;;;;;;2.30;0.75;;;7.90;99.90;;;;;;5094362;28;20034;-66
2023/01/14 20:48:38;;;;;;;4.45;1.10;;;7.90;99.90;;;;;;5094118;28;20480;-65
2023/01/14 20:51:07;;;;;;;5.32;1.10;;;7.70;99.90;;;;;;5093802;28;20024;-66
2023/01/14 20:53:33;;;;;;;7.10;1.10;;;7.70;99.90;;;;;;5095030;28;20036;-66
2023/01/14 20:56:00;;;;;;;5.80;1.30;;;7.60;99.90;;;;;;5092674;28;20027;-66
2023/01/14 21:01:20;;;;;;;5.38;1.55;;;7.60;99.90;;;;;;5047609;28;20029;-64
2023/01/14 21:03:47;;;;;;;6.90;1.55;;;7.50;99.90;;;;;;5054388;28;20024;-67
2023/01/14 21:06:15;;;;;;;3.38;1.20;;;7.50;99.90;;;;;;5053767;28;20040;-68
2023/01/14 21:08:41;;;;;;;4.07;0.90;;;7.60;99.90;;;;;;5054258;28;20048;-68
2023/01/14 21:11:14;;;;;;;4.55;1.50;;;7.50;99.90;;;;;;5052909;28;20056;-68
2023/01/14 21:25:10;;;;;;;3.92;1.30;;;7.50;99.90;;;;;;5094831;28;20175;-67
2023/01/14 21:27:36;;;;;;;3.60;1.17;;;7.50;99.90;;;;;;5093356;28;20028;-68
2023/01/14 21:30:03;;;;;;;4.15;1.60;;;7.50;99.90;;;;;;5093667;28;20082;-67
2023/01/14 21:32:29;;;;;;;4.13;0.90;;;7.50;99.90;;;;;;5092304;28;20100;-67
2023/01/14 21:34:59;;;;;;;1.88;0.82;;;7.60;99.90;;;;;;5093509;28;20056;-67
2023/01/14 21:37:25;;;;;;;4.25;1.15;;;7.60;99.90;;;;;;5094203;28;20476;-69
2023/01/14 21:39:51;;;;;;;2.53;1.00;;;7.60;99.90;;;;;;5093011;28;20612;-67
2023/01/14 21:45:00;;;;;;;7.00;1.70;;;7.60;99.90;;;;;;5093533;28;20047;-68
2023/01/14 21:47:26;;;;;;;3.78;1.20;;;7.60;99.90;;;;;;5092943;28;20028;-67
2023/01/14 21:49:53;;;;;;;6.13;1.65;;;7.60;99.90;;;;;;5093294;28;20028;-67
2023/01/14 21:52:21;;;;;;;3.22;1.00;;;7.60;99.90;;;;;;5093896;28;20043;-69
2023/01/14 21:54:48;;;;;;;7.20;1.90;;;7.60;99.90;;;;;;5093055;28;20035;-69
2023/01/14 21:57:14;;;;;;;4.30;1.40;;;7.70;99.90;;;;;;5092999;28;20401;-67
2023/01/14 21:59:40;;;;;;;2.85;0.93;;;7.60;99.90;;;;;;5092946;28;20024;-67
2023/01/14 22:02:08;;;;;;;6.28;1.42;;;7.70;99.90;;;;;;5092720;28;20038;-68
